sensor_id;sensor_type;location;lat;lon;timestamp;pressure;altitude;pressure_sealevel;temperature;humidity
54248;BME280;40161;39.768;2.722;2023-09-07T00:01:49;101353.09;;;23.30;84.07
54248;BME280;40161;39.768;2.722;2023-09-07T00:04:18;101365.75;;;23.51;83.22
54248;BME280;40161;39.768;2.722;2023-09-07T00:06:44;101368.69;;;23.60;83.42
54248;BME280;40161;39.768;2.722;2023-09-07T00:09:09;101373.28;;;23.54;83.90
54248;BME280;40161;39.768;2.722;2023-09-07T00:11:37;101374.84;;;23.55;84.00
54248;BME280;40161;39.768;2.722;2023-09-07T00:14:03;101367.22;;;23.55;84.26
54248;BME280;40161;39.768;2.722;2023-09-07T00:16:31;101362.97;;;23.51;84.28
54248;BME280;40161;39.768;2.722;2023-09-07T00:18:59;101353.34;;;23.35;84.71
54248;BME280;40161;39.768;2.722;2023-09-07T00:21:25;101360.41;;;23.40;85.32
54248;BME280;40161;39.768;2.722;2023-09-07T00:23:50;101334.28;;;23.14;85.79
54248;BME280;40161;39.768;2.722;2023-09-07T00:26:16;101365.16;;;23.27;86.55
54248;BME280;40161;39.768;2.722;2023-09-07T00:28:41;101359.47;;;23.30;86.70
54248;BME280;40161;39.768;2.722;2023-09-07T00:31:07;101355.44;;;23.15;88.34
54248;BME280;40161;39.768;2.722;2023-09-07T00:33:32;101348.56;;;23.19;87.66
54248;BME280;40161;39.768;2.722;2023-09-07T00:35:58;101323.78;;;23.18;87.36
54248;BME280;40161;39.768;2.722;2023-09-07T00:38:23;101348.59;;;23.32;88.00
54248;BME280;40161;39.768;2.722;2023-09-07T00:40:49;101354.22;;;23.32;87.96
54248;BME280;40161;39.768;2.722;2023-09-07T00:43:14;101353.59;;;23.41;87.75
54248;BME280;40161;39.768;2.722;2023-09-07T00:45:40;101356.72;;;23.43;87.84
54248;BME280;40161;39.768;2.722;2023-09-07T00:48:06;101355.94;;;23.42;87.81
54248;BME280;40161;39.768;2.722;2023-09-07T00:50:32;101347.75;;;23.35;88.70
54248;BME280;40161;39.768;2.722;2023-09-07T00:52:59;101343.00;;;23.32;88.32
54248;BME280;40161;39.768;2.722;2023-09-07T00:55:27;101345.19;;;23.41;88.06
54248;BME280;40161;39.768;2.722;2023-09-07T00:57:54;101343.47;;;23.31;88.79
54248;BME280;40161;39.768;2.722;2023-09-07T01:00:20;101329.19;;;23.25;88.25
54248;BME280;40161;39.768;2.722;2023-09-07T01:02:46;101325.25;;;23.22;89.30
54248;BME280;40161;39.768;2.722;2023-09-07T01:05:12;101318.25;;;23.31;89.33
54248;BME280;40161;39.768;2.722;2023-09-07T01:07:43;101320.09;;;23.21;89.98
54248;BME280;40161;39.768;2.722;2023-09-07T01:10:11;101330.25;;;23.15;91.09
54248;BME280;40161;39.768;2.722;2023-09-07T01:12:39;101333.06;;;22.98;91.94
54248;BME280;40161;39.768;2.722;2023-09-07T01:15:05;101333.88;;;22.99;92.38
54248;BME280;40161;39.768;2.722;2023-09-07T01:17:33;101309.69;;;22.89;92.77
54248;BME280;40161;39.768;2.722;2023-09-07T01:20:01;101337.00;;;23.17;91.37
54248;BME280;40161;39.768;2.722;2023-09-07T01:22:31;101340.41;;;23.25;91.47
54248;BME280;40161;39.768;2.722;2023-09-07T01:24:58;101329.19;;;23.25;90.29
54248;BME280;40161;39.768;2.722;2023-09-07T01:27:24;101328.69;;;23.14;91.43
54248;BME280;40161;39.768;2.722;2023-09-07T01:29:49;101326.84;;;23.07;91.31
54248;BME280;40161;39.768;2.722;2023-09-07T01:32:16;101328.25;;;23.15;91.93
54248;BME280;40161;39.768;2.722;2023-09-07T01:34:42;101322.56;;;23.03;92.75
54248;BME280;40161;39.768;2.722;2023-09-07T01:37:07;101334.00;;;23.08;92.38
54248;BME280;40161;39.768;2.722;2023-09-07T01:39:33;101331.50;;;23.14;92.13
54248;BME280;40161;39.768;2.722;2023-09-07T01:41:58;101334.09;;;23.05;92.33
54248;BME280;40161;39.768;2.722;2023-09-07T01:44:24;101333.88;;;22.99;93.30
54248;BME280;40161;39.768;2.722;2023-09-07T01:46:51;101330.84;;;22.90;94.45
54248;BME280;40161;39.768;2.722;2023-09-07T01:49:16;101327.63;;;22.75;95.02
54248;BME280;40161;39.768;2.722;2023-09-07T01:51:42;101333.63;;;22.73;95.56
54248;BME280;40161;39.768;2.722;2023-09-07T01:54:07;101305.88;;;22.46;95.75
54248;BME280;40161;39.768;2.722;2023-09-07T01:56:34;101305.63;;;22.57;96.12
54248;BME280;40161;39.768;2.722;2023-09-07T01:59:00;101321.22;;;22.74;95.55
54248;BME280;40161;39.768;2.722;2023-09-07T02:01:30;101315.78;;;22.51;95.15
54248;BME280;40161;39.768;2.722;2023-09-07T02:03:57;101335.78;;;22.49;96.80
54248;BME280;40161;39.768;2.722;2023-09-07T02:06:23;101331.16;;;22.59;97.57
54248;BME280;40161;39.768;2.722;2023-09-07T02:08:48;101330.50;;;22.71;96.50
54248;BME280;40161;39.768;2.722;2023-09-07T02:11:14;101332.06;;;22.72;96.37
54248;BME280;40161;39.768;2.722;2023-09-07T02:13:45;101317.53;;;22.61;95.96
54248;BME280;40161;39.768;2.722;2023-09-07T02:16:11;101321.75;;;22.69;96.14
54248;BME280;40161;39.768;2.722;2023-09-07T02:18:36;101298.28;;;22.47;96.38
54248;BME280;40161;39.768;2.722;2023-09-07T02:21:12;101331.69;;;22.70;95.69
54248;BME280;40161;39.768;2.722;2023-09-07T02:23:38;101330.84;;;22.73;94.99
54248;BME280;40161;39.768;2.722;2023-09-07T02:26:04;101323.13;;;22.61;96.32
54248;BME280;40161;39.768;2.722;2023-09-07T02:28:30;101325.66;;;22.56;95.52
54248;BME280;40161;39.768;2.722;2023-09-07T02:31:02;101321.34;;;22.35;97.59
54248;BME280;40161;39.768;2.722;2023-09-07T02:33:28;101332.88;;;22.37;98.07
54248;BME280;40161;39.768;2.722;2023-09-07T02:35:54;101329.59;;;22.58;97.39
54248;BME280;40161;39.768;2.722;2023-09-07T02:38:19;101325.38;;;22.50;97.85
54248;BME280;40161;39.768;2.722;2023-09-07T02:40:45;101326.06;;;22.38;98.71
54248;BME280;40161;39.768;2.722;2023-09-07T02:43:11;101325.50;;;22.26;98.71
54248;BME280;40161;39.768;2.722;2023-09-07T02:45:38;101323.06;;;22.28;99.47
54248;BME280;40161;39.768;2.722;2023-09-07T02:48:04;101328.06;;;22.37;97.54
54248;BME280;40161;39.768;2.722;2023-09-07T02:50:31;101333.22;;;22.39;98.00
54248;BME280;40161;39.768;2.722;2023-09-07T02:52:57;101337.00;;;22.48;97.79
54248;BME280;40161;39.768;2.722;2023-09-07T02:55:23;101336.63;;;22.46;97.72
54248;BME280;40161;39.768;2.722;2023-09-07T02:57:48;101331.66;;;22.38;97.45
54248;BME280;40161;39.768;2.722;2023-09-07T03:00:14;101300.28;;;22.10;99.52
54248;BME280;40161;39.768;2.722;2023-09-07T03:02:43;101325.22;;;22.21;98.47
54248;BME280;40161;39.768;2.722;2023-09-07T03:05:09;101341.22;;;22.20;99.66
54248;BME280;40161;39.768;2.722;2023-09-07T03:07:34;101329.78;;;22.11;100.00
54248;BME280;40161;39.768;2.722;2023-09-07T03:10:00;101326.53;;;22.16;100.00
54248;BME280;40161;39.768;2.722;2023-09-07T03:12:27;101328.81;;;22.21;99.85
54248;BME280;40161;39.768;2.722;2023-09-07T03:14:52;101323.13;;;22.25;98.75
54248;BME280;40161;39.768;2.722;2023-09-07T03:17:18;101328.22;;;22.30;99.64
54248;BME280;40161;39.768;2.722;2023-09-07T03:19:48;101329.94;;;22.24;99.42
54248;BME280;40161;39.768;2.722;2023-09-07T03:22:14;101303.22;;;22.03;100.00
54248;BME280;40161;39.768;2.722;2023-09-07T03:24:40;101330.03;;;22.20;100.00
54248;BME280;40161;39.768;2.722;2023-09-07T03:27:06;101335.34;;;22.15;99.95
54248;BME280;40161;39.768;2.722;2023-09-07T03:29:32;101327.00;;;22.11;100.00
54248;BME280;40161;39.768;2.722;2023-09-07T03:32:01;101332.13;;;22.16;100.00
54248;BME280;40161;39.768;2.722;2023-09-07T03:34:27;101323.66;;;22.20;99.71
54248;BME280;40161;39.768;2.722;2023-09-07T03:36:53;101327.06;;;22.08;100.00
54248;BME280;40161;39.768;2.722;2023-09-07T03:39:18;101326.63;;;22.09;100.00
54248;BME280;40161;39.768;2.722;2023-09-07T03:41:44;101303.63;;;22.01;100.00
54248;BME280;40161;39.768;2.722;2023-09-07T03:44:10;101327.22;;;22.00;100.00
54248;BME280;40161;39.768;2.722;2023-09-07T03:46:36;101294.84;;;21.83;100.00
54248;BME280;40161;39.768;2.722;2023-09-07T03:49:02;101322.84;;;21.79;100.00
54248;BME280;40161;39.768;2.722;2023-09-07T03:51:28;101317.50;;;21.89;100.00
54248;BME280;40161;39.768;2.722;2023-09-07T03:53:53;101324.97;;;21.92;100.00
54248;BME280;40161;39.768;2.722;2023-09-07T03:56:19;101320.53;;;21.94;100.00
54248;BME280;40161;39.768;2.722;2023-09-07T03:58:45;101323.16;;;21.85;100.00
54248;BME280;40161;39.768;2.722;2023-09-07T04:01:13;101331.88;;;21.87;100.00
54248;BME280;40161;39.768;2.722;2023-09-07T04:03:38;101319.75;;;21.94;100.00
54248;BME280;40161;39.768;2.722;2023-09-07T04:06:05;101320.75;;;21.84;100.00
54248;BME280;40161;39.768;2.722;2023-09-07T04:08:31;101316.34;;;21.86;100.00
54248;BME280;40161;39.768;2.722;2023-09-07T04:10:56;101317.25;;;21.79;100.00
54248;BME280;40161;39.768;2.722;2023-09-07T04:13:22;101283.88;;;21.72;100.00
54248;BME280;40161;39.768;2.722;2023-09-07T04:15:48;101286.00;;;21.85;100.00
54248;BME280;40161;39.768;2.722;2023-09-07T04:18:14;101319.31;;;21.95;100.00
54248;BME280;40161;39.768;2.722;2023-09-07T04:20:41;101317.59;;;21.81;100.00
54248;BME280;40161;39.768;2.722;2023-09-07T04:23:07;101317.56;;;21.85;100.00
54248;BME280;40161;39.768;2.722;2023-09-07T04:25:33;101325.63;;;21.79;100.00
54248;BME280;40161;39.768;2.722;2023-09-07T04:27:58;101308.25;;;21.72;100.00
54248;BME280;40161;39.768;2.722;2023-09-07T04:30:24;101319.19;;;21.83;100.00
54248;BME280;40161;39.768;2.722;2023-09-07T04:32:49;101320.75;;;21.84;100.00
54248;BME280;40161;39.768;2.722;2023-09-07T04:35:15;101312.81;;;21.82;100.00
54248;BME280;40161;39.768;2.722;2023-09-07T04:37:44;101327.22;;;21.80;100.00
54248;BME280;40161;39.768;2.722;2023-09-07T04:40:10;101316.63;;;21.72;100.00
54248;BME280;40161;39.768;2.722;2023-09-07T04:42:37;101322.81;;;21.60;100.00
54248;BME280;40161;39.768;2.722;2023-09-07T04:45:05;101328.47;;;21.56;100.00
54248;BME280;40161;39.768;2.722;2023-09-07T04:47:31;101326.94;;;21.75;100.00
54248;BME280;40161;39.768;2.722;2023-09-07T04:49:57;101251.59;;;21.28;100.00
54248;BME280;40161;39.768;2.722;2023-09-07T04:52:22;101322.25;;;21.88;100.00
54248;BME280;40161;39.768;2.722;2023-09-07T04:54:48;101336.50;;;21.74;100.00
54248;BME280;40161;39.768;2.722;2023-09-07T04:57:16;101338.59;;;21.70;100.00
54248;BME280;40161;39.768;2.722;2023-09-07T04:59:43;101330.78;;;21.61;100.00
54248;BME280;40161;39.768;2.722;2023-09-07T05:02:09;101327.19;;;21.61;100.00
54248;BME280;40161;39.768;2.722;2023-09-07T05:04:34;101327.13;;;21.64;100.00
54248;BME280;40161;39.768;2.722;2023-09-07T05:07:00;101337.38;;;21.71;100.00
54248;BME280;40161;39.768;2.722;2023-09-07T05:09:26;101329.06;;;21.67;100.00
54248;BME280;40161;39.768;2.722;2023-09-07T05:11:54;101334.94;;;21.73;100.00
54248;BME280;40161;39.768;2.722;2023-09-07T05:14:19;101341.91;;;21.65;100.00
54248;BME280;40161;39.768;2.722;2023-09-07T05:16:45;101335.22;;;21.59;100.00
54248;BME280;40161;39.768;2.722;2023-09-07T05:19:11;101341.59;;;21.59;100.00
54248;BME280;40161;39.768;2.722;2023-09-07T05:21:36;101344.13;;;21.50;100.00
54248;BME280;40161;39.768;2.722;2023-09-07T05:24:02;101318.88;;;21.37;100.00
54248;BME280;40161;39.768;2.722;2023-09-07T05:26:27;101348.59;;;21.47;100.00
54248;BME280;40161;39.768;2.722;2023-09-07T05:28:53;101322.03;;;21.12;100.00
54248;BME280;40161;39.768;2.722;2023-09-07T05:31:19;101355.09;;;21.41;100.00
54248;BME280;40161;39.768;2.722;2023-09-07T05:33:44;101359.38;;;21.45;100.00
54248;BME280;40161;39.768;2.722;2023-09-07T05:36:10;101359.31;;;21.49;100.00
54248;BME280;40161;39.768;2.722;2023-09-07T05:38:35;101360.03;;;21.53;100.00
54248;BME280;40161;39.768;2.722;2023-09-07T05:41:01;101368.31;;;21.37;100.00
54248;BME280;40161;39.768;2.722;2023-09-07T05:43:27;101380.03;;;21.51;100.00
54248;BME280;40161;39.768;2.722;2023-09-07T05:45:52;101376.69;;;21.37;100.00
54248;BME280;40161;39.768;2.722;2023-09-07T05:48:18;101356.88;;;21.27;100.00
54248;BME280;40161;39.768;2.722;2023-09-07T05:50:44;101390.69;;;21.56;100.00
54248;BME280;40161;39.768;2.722;2023-09-07T05:53:10;101390.69;;;21.56;100.00
54248;BME280;40161;39.768;2.722;2023-09-07T05:55:36;101392.56;;;21.63;100.00
54248;BME280;40161;39.768;2.722;2023-09-07T05:58:05;101396.94;;;21.64;100.00
54248;BME280;40161;39.768;2.722;2023-09-07T06:00:31;101399.72;;;21.64;100.00
54248;BME280;40161;39.768;2.722;2023-09-07T06:02:57;101395.03;;;21.61;100.00
54248;BME280;40161;39.768;2.722;2023-09-07T06:05:23;101403.47;;;21.58;100.00
54248;BME280;40161;39.768;2.722;2023-09-07T06:07:49;101406.19;;;21.61;100.00
54248;BME280;40161;39.768;2.722;2023-09-07T06:10:14;101379.78;;;21.42;100.00
54248;BME280;40161;39.768;2.722;2023-09-07T06:12:40;101411.28;;;21.66;100.00
54248;BME280;40161;39.768;2.722;2023-09-07T06:15:07;101405.56;;;21.50;100.00
54248;BME280;40161;39.768;2.722;2023-09-07T06:17:33;101402.06;;;21.46;100.00
54248;BME280;40161;39.768;2.722;2023-09-07T06:19:58;101414.31;;;21.52;100.00
54248;BME280;40161;39.768;2.722;2023-09-07T06:22:24;101415.59;;;21.47;100.00
54248;BME280;40161;39.768;2.722;2023-09-07T06:24:50;101412.91;;;21.64;100.00
54248;BME280;40161;39.768;2.722;2023-09-07T06:27:15;101389.25;;;21.48;100.00
54248;BME280;40161;39.768;2.722;2023-09-07T06:29:41;101415.16;;;21.72;100.00
54248;BME280;40161;39.768;2.722;2023-09-07T06:32:06;101410.56;;;21.62;100.00
54248;BME280;40161;39.768;2.722;2023-09-07T06:34:32;101403.34;;;21.65;100.00
54248;BME280;40161;39.768;2.722;2023-09-07T06:36:57;101413.47;;;21.55;100.00
54248;BME280;40161;39.768;2.722;2023-09-07T06:39:23;101378.28;;;21.38;100.00
54248;BME280;40161;39.768;2.722;2023-09-07T06:41:49;101383.28;;;21.46;100.00
54248;BME280;40161;39.768;2.722;2023-09-07T06:44:14;101401.75;;;21.64;100.00
54248;BME280;40161;39.768;2.722;2023-09-07T06:46:40;101403.28;;;21.68;100.00
54248;BME280;40161;39.768;2.722;2023-09-07T06:49:06;101401.97;;;21.73;100.00
54248;BME280;40161;39.768;2.722;2023-09-07T06:51:32;101370.31;;;21.60;100.00
54248;BME280;40161;39.768;2.722;2023-09-07T06:53:57;101406.75;;;21.96;100.00
54248;BME280;40161;39.768;2.722;2023-09-07T06:56:23;101408.19;;;22.04;99.92
54248;BME280;40161;39.768;2.722;2023-09-07T06:58:49;101402.09;;;22.09;97.73
54248;BME280;40161;39.768;2.722;2023-09-07T07:01:15;101414.22;;;22.22;94.76
54248;BME280;40161;39.768;2.722;2023-09-07T07:03:41;101409.22;;;22.34;93.34
54248;BME280;40161;39.768;2.722;2023-09-07T07:06:07;101421.06;;;22.41;92.42
54248;BME280;40161;39.768;2.722;2023-09-07T07:08:32;101421.19;;;22.54;93.06
54248;BME280;40161;39.768;2.722;2023-09-07T07:10:58;101408.78;;;22.55;92.10
54248;BME280;40161;39.768;2.722;2023-09-07T07:13:23;101375.09;;;22.42;92.23
54248;BME280;40161;39.768;2.722;2023-09-07T07:15:49;101410.41;;;22.72;93.86
54248;BME280;40161;39.768;2.722;2023-09-07T07:18:15;101415.47;;;22.78;95.13
54248;BME280;40161;39.768;2.722;2023-09-07T07:20:42;101414.53;;;22.84;95.89
54248;BME280;40161;39.768;2.722;2023-09-07T07:23:11;101403.25;;;22.88;93.52
54248;BME280;40161;39.768;2.722;2023-09-07T07:25:38;101412.44;;;22.88;90.69
54248;BME280;40161;39.768;2.722;2023-09-07T07:28:04;101411.09;;;22.96;88.53
54248;BME280;40161;39.768;2.722;2023-09-07T07:30:38;101385.41;;;22.82;87.95
54248;BME280;40161;39.768;2.722;2023-09-07T07:33:07;101412.16;;;23.03;86.60
54248;BME280;40161;39.768;2.722;2023-09-07T07:35:33;101397.88;;;22.97;84.52
54248;BME280;40161;39.768;2.722;2023-09-07T07:38:03;101404.34;;;23.10;84.10
54248;BME280;40161;39.768;2.722;2023-09-07T07:40:32;101414.25;;;23.31;82.52
54248;BME280;40161;39.768;2.722;2023-09-07T07:42:58;101424.75;;;23.43;80.88
54248;BME280;40161;39.768;2.722;2023-09-07T07:45:23;101425.38;;;23.51;80.94
54248;BME280;40161;39.768;2.722;2023-09-07T07:47:49;101419.22;;;23.56;79.35
54248;BME280;40161;39.768;2.722;2023-09-07T07:50:15;101422.97;;;23.66;77.73
54248;BME280;40161;39.768;2.722;2023-09-07T07:52:41;101392.34;;;23.59;75.51
54248;BME280;40161;39.768;2.722;2023-09-07T07:55:08;101420.41;;;23.88;75.63
54248;BME280;40161;39.768;2.722;2023-09-07T07:57:33;101364.59;;;23.64;75.97
54248;BME280;40161;39.768;2.722;2023-09-07T07:59:59;101421.16;;;24.05;75.20
54248;BME280;40161;39.768;2.722;2023-09-07T08:02:24;101425.09;;;24.07;75.55
54248;BME280;40161;39.768;2.722;2023-09-07T08:04:50;101431.75;;;24.13;74.78
54248;BME280;40161;39.768;2.722;2023-09-07T08:07:16;101434.59;;;24.26;75.13
54248;BME280;40161;39.768;2.722;2023-09-07T08:09:42;101403.25;;;24.15;75.44
54248;BME280;40161;39.768;2.722;2023-09-07T08:12:07;101435.00;;;24.41;76.14
54248;BME280;40161;39.768;2.722;2023-09-07T08:14:33;101431.19;;;24.48;76.91
54248;BME280;40161;39.768;2.722;2023-09-07T08:16:59;101416.16;;;24.42;77.36
54248;BME280;40161;39.768;2.722;2023-09-07T08:19:25;101438.72;;;24.63;77.25
54248;BME280;40161;39.768;2.722;2023-09-07T08:21:53;101442.00;;;24.62;77.61
54248;BME280;40161;39.768;2.722;2023-09-07T08:24:18;101452.78;;;24.76;77.17
54248;BME280;40161;39.768;2.722;2023-09-07T08:26:44;101448.06;;;24.73;77.49
54248;BME280;40161;39.768;2.722;2023-09-07T08:29:10;101455.06;;;24.81;78.58
54248;BME280;40161;39.768;2.722;2023-09-07T08:31:36;101450.00;;;24.89;77.93
54248;BME280;40161;39.768;2.722;2023-09-07T08:34:05;101445.41;;;24.95;77.83
54248;BME280;40161;39.768;2.722;2023-09-07T08:36:31;101448.00;;;25.02;78.06
54248;BME280;40161;39.768;2.722;2023-09-07T08:39:05;101455.75;;;25.11;77.21
54248;BME280;40161;39.768;2.722;2023-09-07T08:41:37;101453.97;;;25.17;75.76
54248;BME280;40161;39.768;2.722;2023-09-07T08:44:15;101462.41;;;25.30;71.44
54248;BME280;40161;39.768;2.722;2023-09-07T08:46:43;101464.63;;;25.48;69.05
54248;BME280;40161;39.768;2.722;2023-09-07T08:49:10;101462.09;;;25.63;69.68
54248;BME280;40161;39.768;2.722;2023-09-07T08:51:37;101465.50;;;25.57;70.24
54248;BME280;40161;39.768;2.722;2023-09-07T08:54:07;101462.03;;;25.53;70.52
54248;BME280;40161;39.768;2.722;2023-09-07T08:56:33;101440.47;;;25.38;69.37
54248;BME280;40161;39.768;2.722;2023-09-07T08:58:59;101465.03;;;25.59;69.36
54248;BME280;40161;39.768;2.722;2023-09-07T09:01:25;101446.75;;;25.54;68.13
54248;BME280;40161;39.768;2.722;2023-09-07T09:03:51;101470.06;;;25.77;65.55
54248;BME280;40161;39.768;2.722;2023-09-07T09:06:19;101463.53;;;25.93;64.63
54248;BME280;40161;39.768;2.722;2023-09-07T09:08:47;101470.31;;;25.83;64.16
54248;BME280;40161;39.768;2.722;2023-09-07T09:11:17;101470.16;;;25.99;62.41
54248;BME280;40161;39.768;2.722;2023-09-07T09:13:43;101475.63;;;26.02;62.26
54248;BME280;40161;39.768;2.722;2023-09-07T09:16:09;101463.94;;;26.04;62.12
54248;BME280;40161;39.768;2.722;2023-09-07T09:18:35;101466.28;;;26.06;62.70
54248;BME280;40161;39.768;2.722;2023-09-07T09:21:01;101477.59;;;26.15;61.86
54248;BME280;40161;39.768;2.722;2023-09-07T09:23:33;101469.47;;;26.30;59.43
54248;BME280;40161;39.768;2.722;2023-09-07T09:26:03;101462.19;;;26.19;58.30
54248;BME280;40161;39.768;2.722;2023-09-07T09:28:31;101474.75;;;26.27;59.85
54248;BME280;40161;39.768;2.722;2023-09-07T09:30:58;101472.44;;;26.35;58.81
54248;BME280;40161;39.768;2.722;2023-09-07T09:33:25;101465.25;;;26.34;57.74
54248;BME280;40161;39.768;2.722;2023-09-07T09:35:52;101469.72;;;26.44;57.28
54248;BME280;40161;39.768;2.722;2023-09-07T09:38:18;101463.44;;;26.40;57.31
54248;BME280;40161;39.768;2.722;2023-09-07T09:40:44;101462.41;;;26.47;57.36
54248;BME280;40161;39.768;2.722;2023-09-07T09:43:11;101467.56;;;26.70;57.18
54248;BME280;40161;39.768;2.722;2023-09-07T09:45:37;101441.66;;;26.54;56.30
54248;BME280;40161;39.768;2.722;2023-09-07T09:48:04;101463.91;;;26.61;56.66
54248;BME280;40161;39.768;2.722;2023-09-07T09:50:31;101466.53;;;26.86;57.16
54248;BME280;40161;39.768;2.722;2023-09-07T09:52:57;101471.75;;;26.97;57.17
54248;BME280;40161;39.768;2.722;2023-09-07T09:55:23;101468.34;;;27.02;57.17
54248;BME280;40161;39.768;2.722;2023-09-07T09:57:49;101465.16;;;27.22;54.82
54248;BME280;40161;39.768;2.722;2023-09-07T10:00:16;101475.78;;;27.18;55.43
54248;BME280;40161;39.768;2.722;2023-09-07T10:03:07;101469.75;;;27.07;56.20
54248;BME280;40161;39.768;2.722;2023-09-07T10:05:30;101458.13;;;27.27;53.71
54248;BME280;40161;39.768;2.722;2023-09-07T10:08:07;101464.34;;;27.21;54.08
54248;BME280;40161;39.768;2.722;2023-09-07T10:10:35;101449.25;;;27.06;56.86
54248;BME280;40161;39.768;2.722;2023-09-07T10:13:05;101466.72;;;27.23;56.09
54248;BME280;40161;39.768;2.722;2023-09-07T10:15:31;101448.00;;;27.07;55.61
54248;BME280;40161;39.768;2.722;2023-09-07T10:18:15;101468.84;;;27.10;56.43
54248;BME280;40161;39.768;2.722;2023-09-07T10:23:21;101472.41;;;27.41;58.23
54248;BME280;40161;39.768;2.722;2023-09-07T10:25:50;101483.06;;;27.37;58.17
54248;BME280;40161;39.768;2.722;2023-09-07T10:28:24;101452.72;;;27.10;57.36
54248;BME280;40161;39.768;2.722;2023-09-07T10:31:04;101443.56;;;27.19;53.75
54248;BME280;40161;39.768;2.722;2023-09-07T10:33:35;101467.09;;;27.43;55.88
54248;BME280;40161;39.768;2.722;2023-09-07T10:36:02;101445.50;;;27.40;57.06
54248;BME280;40161;39.768;2.722;2023-09-07T10:38:28;101437.63;;;27.35;57.91
54248;BME280;40161;39.768;2.722;2023-09-07T10:40:58;101449.91;;;27.60;56.86
54248;BME280;40161;39.768;2.722;2023-09-07T10:43:28;101440.69;;;27.68;54.02
54248;BME280;40161;39.768;2.722;2023-09-07T10:45:55;101446.81;;;27.76;53.87
54248;BME280;40161;39.768;2.722;2023-09-07T10:48:23;101437.53;;;27.66;54.90
54248;BME280;40161;39.768;2.722;2023-09-07T10:50:49;101434.72;;;27.57;54.21
54248;BME280;40161;39.768;2.722;2023-09-07T10:53:24;101436.31;;;27.67;55.74
54248;BME280;40161;39.768;2.722;2023-09-07T10:55:50;101422.53;;;27.79;54.52
54248;BME280;40161;39.768;2.722;2023-09-07T10:58:27;101420.97;;;27.96;53.66
54248;BME280;40161;39.768;2.722;2023-09-07T11:00:54;101425.19;;;28.19;52.99
54248;BME280;40161;39.768;2.722;2023-09-07T11:03:19;101402.47;;;27.77;53.82
54248;BME280;40161;39.768;2.722;2023-09-07T11:05:45;101423.81;;;27.96;53.72
54248;BME280;40161;39.768;2.722;2023-09-07T11:08:11;101417.69;;;27.88;51.72
54248;BME280;40161;39.768;2.722;2023-09-07T11:10:37;101413.75;;;28.04;53.02
54248;BME280;40161;39.768;2.722;2023-09-07T11:13:06;101410.78;;;28.17;51.19
54248;BME280;40161;39.768;2.722;2023-09-07T11:15:32;101410.34;;;27.91;53.23
54248;BME280;40161;39.768;2.722;2023-09-07T11:18:06;101410.31;;;28.00;53.30
54248;BME280;40161;39.768;2.722;2023-09-07T11:20:33;101413.53;;;28.35;51.21
54248;BME280;40161;39.768;2.722;2023-09-07T11:22:59;101413.88;;;28.37;50.36
54248;BME280;40161;39.768;2.722;2023-09-07T11:25:24;101387.09;;;28.14;51.54
54248;BME280;40161;39.768;2.722;2023-09-07T11:27:51;101393.78;;;28.35;50.45
54248;BME280;40161;39.768;2.722;2023-09-07T11:30:20;101399.44;;;28.45;49.13
54248;BME280;40161;39.768;2.722;2023-09-07T11:32:46;101396.94;;;28.47;49.95
54248;BME280;40161;39.768;2.722;2023-09-07T11:35:12;101405.19;;;28.59;48.86
54248;BME280;40161;39.768;2.722;2023-09-07T11:37:38;101410.56;;;28.57;48.63
54248;BME280;40161;39.768;2.722;2023-09-07T11:40:04;101398.38;;;28.14;51.32
54248;BME280;40161;39.768;2.722;2023-09-07T11:42:36;101406.06;;;28.14;52.22
54248;BME280;40161;39.768;2.722;2023-09-07T11:45:02;101391.19;;;28.04;52.17
54248;BME280;40161;39.768;2.722;2023-09-07T11:47:28;101402.94;;;28.12;52.80
54248;BME280;40161;39.768;2.722;2023-09-07T11:49:53;101398.56;;;27.92;53.34
54248;BME280;40161;39.768;2.722;2023-09-07T11:52:19;101392.94;;;27.92;54.45
54248;BME280;40161;39.768;2.722;2023-09-07T11:54:44;101394.19;;;27.91;55.88
54248;BME280;40161;39.768;2.722;2023-09-07T11:57:10;101403.91;;;28.09;54.58
54248;BME280;40161;39.768;2.722;2023-09-07T11:59:35;101388.69;;;28.06;55.15
54248;BME280;40161;39.768;2.722;2023-09-07T12:02:01;101397.47;;;28.08;54.62
54248;BME280;40161;39.768;2.722;2023-09-07T12:04:27;101401.03;;;28.18;55.41
54248;BME280;40161;39.768;2.722;2023-09-07T12:06:52;101405.78;;;28.12;55.42
54248;BME280;40161;39.768;2.722;2023-09-07T12:09:18;101363.94;;;27.92;54.22
54248;BME280;40161;39.768;2.722;2023-09-07T12:11:45;101405.63;;;28.15;56.39
54248;BME280;40161;39.768;2.722;2023-09-07T12:14:10;101402.63;;;28.10;57.13
54248;BME280;40161;39.768;2.722;2023-09-07T12:16:36;101402.63;;;28.10;57.74
54248;BME280;40161;39.768;2.722;2023-09-07T12:19:01;101390.53;;;28.28;56.81
54248;BME280;40161;39.768;2.722;2023-09-07T12:21:27;101401.81;;;28.28;57.71
54248;BME280;40161;39.768;2.722;2023-09-07T12:23:52;101405.13;;;28.26;56.63
54248;BME280;40161;39.768;2.722;2023-09-07T12:26:18;101398.38;;;28.33;55.77
54248;BME280;40161;39.768;2.722;2023-09-07T12:28:46;101406.84;;;28.24;56.38
54248;BME280;40161;39.768;2.722;2023-09-07T12:31:12;101389.56;;;28.31;56.21
54248;BME280;40161;39.768;2.722;2023-09-07T12:33:38;101384.75;;;28.22;53.81
54248;BME280;40161;39.768;2.722;2023-09-07T12:36:03;101399.16;;;28.24;54.29
54248;BME280;40161;39.768;2.722;2023-09-07T12:38:30;101395.38;;;28.27;54.83
54248;BME280;40161;39.768;2.722;2023-09-07T12:40:55;101391.94;;;28.32;56.56
54248;BME280;40161;39.768;2.722;2023-09-07T12:43:21;101392.72;;;28.42;55.68
54248;BME280;40161;39.768;2.722;2023-09-07T12:45:47;101379.09;;;28.41;55.22
54248;BME280;40161;39.768;2.722;2023-09-07T12:48:12;101383.13;;;28.49;55.42